Time;durP1;ratioP1;P1;durP2;ratioP2;P2;SDS_P1;SDS_P2;PMS_P1;PMS_P2;Temp;Humidity;BMP_temperature;BMP_pressure;BME280_temperature;BME280_humidity;BME280_pressure;Samples;Min_cycle;Max_cycle;Signal;HPM_P1;HPM_P2
2022/04/29 00:02:22;;;;;;;14.30;5.57;;;;;;;;;;4996698;28;20263;-69
2022/04/29 00:04:47;;;;;;;10.13;5.93;;;;;;;;;;4998300;28;20034;-69
2022/04/29 00:07:12;;;;;;;19.05;5.95;;;;;;;;;;4996633;28;20536;-69
2022/04/29 00:09:37;;;;;;;10.60;6.20;;;;;;;;;;5003243;28;20041;-69
2022/04/29 00:12:04;;;;;;;13.05;5.32;;;;;;;;;;4997117;28;20060;-69
2022/04/29 00:14:29;;;;;;;10.68;6.32;;;;;;;;;;5000527;28;20025;-69
2022/04/29 00:16:54;;;;;;;9.85;6.07;;;;;;;;;;5005561;28;20029;-69
2022/04/29 00:19:20;;;;;;;14.73;5.68;;;;;;;;;;4995117;28;21594;-69
2022/04/29 00:21:45;;;;;;;14.02;6.32;;;;;;;;;;4998500;28;20035;-68
2022/04/29 00:24:10;;;;;;;13.15;5.43;;;;;;;;;;5002301;28;20137;-68
2022/04/29 00:26:37;;;;;;;15.20;6.70;;;;;;;;;;4994952;28;20036;-69
2022/04/29 00:29:03;;;;;;;14.98;6.75;;;;;;;;;;4993505;28;20255;-69
2022/04/29 00:31:28;;;;;;;16.15;6.10;;;;;;;;;;5002112;28;20036;-69
2022/04/29 00:33:54;;;;;;;13.82;6.70;;;;;;;;;;5002776;28;20117;-69
2022/04/29 00:36:19;;;;;;;18.98;6.57;;;;;;;;;;4999188;28;20124;-69
2022/04/29 00:38:44;;;;;;;12.73;6.30;;;;;;;;;;4992466;28;20081;-69
2022/04/29 00:41:09;;;;;;;14.02;6.50;;;;;;;;;;5002129;28;20073;-68
2022/04/29 00:43:34;;;;;;;19.63;6.20;;;;;;;;;;4992240;28;20638;-69
2022/04/29 00:46:00;;;;;;;12.90;6.97;;;;;;;;;;4997802;28;20275;-69
2022/04/29 00:48:25;;;;;;;13.90;6.30;;;;;;;;;;4997003;28;20264;-68
2022/04/29 00:50:50;;;;;;;16.10;6.00;;;;;;;;;;4996092;28;20306;-69
2022/04/29 00:53:17;;;;;;;16.85;6.45;;;;;;;;;;4994772;28;20329;-68
2022/04/29 00:55:43;;;;;;;16.10;6.60;;;;;;;;;;4997726;28;20029;-68
2022/04/29 00:58:12;;;;;;;15.35;6.35;;;;;;;;;;4999024;28;20251;-69
2022/04/29 01:00:38;;;;;;;15.95;7.10;;;;;;;;;;4984170;28;20373;-69
2022/04/29 01:03:04;;;;;;;14.63;6.82;;;;;;;;;;5003657;28;20425;-69
2022/04/29 01:05:31;;;;;;;23.40;6.30;;;;;;;;;;5004215;28;20033;-69
2022/04/29 01:07:56;;;;;;;13.82;6.50;;;;;;;;;;4995367;28;20033;-69
2022/04/29 01:10:22;;;;;;;15.75;7.55;;;;;;;;;;4981349;28;20030;-68
2022/04/29 01:12:49;;;;;;;15.70;6.53;;;;;;;;;;4995457;28;20480;-68
2022/04/29 01:15:17;;;;;;;24.60;7.63;;;;;;;;;;5000586;28;20041;-69
2022/04/29 01:17:44;;;;;;;16.85;6.95;;;;;;;;;;4996240;28;20053;-69
2022/04/29 01:20:10;;;;;;;17.42;7.07;;;;;;;;;;5002063;28;20034;-69
2022/04/29 01:22:35;;;;;;;18.15;7.68;;;;;;;;;;4998770;28;20025;-69
2022/04/29 01:25:00;;;;;;;18.70;6.40;;;;;;;;;;4993495;28;20111;-69
2022/04/29 01:27:26;;;;;;;12.52;6.95;;;;;;;;;;5001388;28;20682;-68
2022/04/29 01:29:57;;;;;;;18.40;6.35;;;;;;;;;;5000401;28;20030;-69
2022/04/29 01:32:22;;;;;;;18.08;7.50;;;;;;;;;;5003785;28;20075;-68
2022/04/29 01:34:48;;;;;;;15.07;6.80;;;;;;;;;;5004332;28;20021;-69
2022/04/29 01:37:13;;;;;;;22.38;7.30;;;;;;;;;;5003249;28;20034;-68
2022/04/29 01:39:38;;;;;;;16.80;7.50;;;;;;;;;;4998352;28;20271;-69
2022/04/29 01:42:03;;;;;;;17.90;7.72;;;;;;;;;;5000927;28;20299;-69
2022/04/29 01:44:28;;;;;;;22.75;7.55;;;;;;;;;;5000720;28;20291;-69
2022/04/29 01:46:53;;;;;;;19.10;7.32;;;;;;;;;;4994616;28;20027;-68
2022/04/29 01:49:19;;;;;;;18.65;8.15;;;;;;;;;;4998902;28;20273;-69
2022/04/29 01:51:44;;;;;;;15.33;6.93;;;;;;;;;;5000335;28;20045;-69
2022/04/29 01:54:12;;;;;;;14.27;6.97;;;;;;;;;;4992744;28;20271;-69
2022/04/29 01:56:38;;;;;;;16.05;7.60;;;;;;;;;;5000824;28;20321;-68
2022/04/29 01:59:04;;;;;;;16.23;7.65;;;;;;;;;;4996162;28;20041;-69
2022/04/29 02:01:30;;;;;;;19.52;7.40;;;;;;;;;;4995880;28;20036;-69
2022/04/29 02:03:55;;;;;;;18.43;8.30;;;;;;;;;;5001284;28;20026;-68
2022/04/29 02:06:20;;;;;;;14.40;7.07;;;;;;;;;;5005546;28;20326;-68
2022/04/29 02:08:46;;;;;;;24.20;8.07;;;;;;;;;;5001478;28;20278;-69
2022/04/29 02:11:11;;;;;;;18.25;7.53;;;;;;;;;;4998609;28;20083;-68
2022/04/29 02:13:37;;;;;;;15.85;7.65;;;;;;;;;;5000044;28;20267;-68
2022/04/29 02:16:02;;;;;;;21.92;8.00;;;;;;;;;;5003963;28;20283;-68
2022/04/29 02:18:28;;;;;;;19.73;8.30;;;;;;;;;;5004835;28;20030;-68
2022/04/29 02:20:53;;;;;;;21.63;8.52;;;;;;;;;;4983538;28;20068;-68
2022/04/29 02:23:18;;;;;;;21.08;8.00;;;;;;;;;;4997760;28;20365;-68
2022/04/29 02:25:43;;;;;;;23.37;9.03;;;;;;;;;;4997631;28;20577;-68
2022/04/29 02:28:08;;;;;;;22.17;7.78;;;;;;;;;;4992143;28;20417;-69
2022/04/29 02:30:33;;;;;;;22.15;7.90;;;;;;;;;;4999376;28;20270;-68
2022/04/29 02:32:58;;;;;;;20.30;8.10;;;;;;;;;;4998040;28;20445;-68
2022/04/29 02:35:24;;;;;;;21.67;8.30;;;;;;;;;;4998693;28;20275;-68
2022/04/29 02:37:49;;;;;;;19.67;7.32;;;;;;;;;;4996574;28;20275;-68
2022/04/29 02:40:14;;;;;;;18.60;7.95;;;;;;;;;;4997099;28;20412;-69
2022/04/29 02:42:39;;;;;;;16.85;8.18;;;;;;;;;;4997222;28;21128;-68
2022/04/29 02:45:05;;;;;;;17.75;8.23;;;;;;;;;;4997229;28;20498;-68
2022/04/29 02:47:31;;;;;;;22.42;9.02;;;;;;;;;;4994982;28;20020;-68
2022/04/29 02:49:57;;;;;;;22.75;9.43;;;;;;;;;;4997777;28;20026;-68
2022/04/29 02:52:23;;;;;;;16.55;8.38;;;;;;;;;;4992390;28;20105;-69
2022/04/29 02:54:48;;;;;;;23.27;9.18;;;;;;;;;;4996090;28;20025;-68
2022/04/29 02:57:13;;;;;;;22.83;8.85;;;;;;;;;;4997297;28;20282;-68
2022/04/29 02:59:38;;;;;;;25.40;9.75;;;;;;;;;;4994264;28;20041;-68
2022/04/29 03:02:03;;;;;;;25.48;9.90;;;;;;;;;;4995314;28;20480;-68
2022/04/29 03:04:29;;;;;;;22.40;9.43;;;;;;;;;;5002812;28;20283;-68
2022/04/29 03:06:54;;;;;;;19.70;8.25;;;;;;;;;;5000739;28;20030;-68
2022/04/29 03:09:20;;;;;;;22.50;9.27;;;;;;;;;;4985469;28;20279;-68
2022/04/29 03:11:46;;;;;;;21.67;9.88;;;;;;;;;;5000282;28;20040;-68
2022/04/29 03:14:11;;;;;;;26.50;9.23;;;;;;;;;;4996853;28;20133;-68
2022/04/29 03:16:36;;;;;;;22.63;9.93;;;;;;;;;;4995436;28;20433;-68
2022/04/29 03:19:01;;;;;;;20.00;8.95;;;;;;;;;;4996613;28;20275;-68
2022/04/29 03:21:26;;;;;;;29.13;10.33;;;;;;;;;;5002650;28;20431;-68
2022/04/29 03:23:52;;;;;;;28.35;9.80;;;;;;;;;;4983035;28;20294;-68
2022/04/29 03:26:17;;;;;;;30.25;10.90;;;;;;;;;;4997364;28;20024;-68
2022/04/29 03:28:42;;;;;;;28.42;10.15;;;;;;;;;;4995066;28;20461;-68
2022/04/29 03:31:07;;;;;;;24.02;9.15;;;;;;;;;;4991324;28;20822;-68
2022/04/29 03:33:33;;;;;;;26.70;10.25;;;;;;;;;;4995634;28;20294;-68
2022/04/29 03:35:58;;;;;;;31.00;10.40;;;;;;;;;;4999781;28;20275;-68
2022/04/29 03:38:24;;;;;;;24.85;10.50;;;;;;;;;;4997498;28;20057;-68
2022/04/29 03:40:50;;;;;;;22.65;10.50;;;;;;;;;;4995424;28;20271;-68
2022/04/29 03:43:15;;;;;;;24.45;11.18;;;;;;;;;;4999111;28;20112;-68
2022/04/29 03:45:41;;;;;;;26.08;10.77;;;;;;;;;;4996069;28;20018;-68
2022/04/29 03:48:06;;;;;;;31.65;11.20;;;;;;;;;;5011900;28;20028;-68
2022/04/29 03:50:32;;;;;;;26.70;11.00;;;;;;;;;;4990839;28;20108;-68
2022/04/29 03:52:58;;;;;;;27.60;10.20;;;;;;;;;;5007648;28;20361;-68
2022/04/29 03:55:24;;;;;;;39.97;11.18;;;;;;;;;;5005520;28;20026;-68
2022/04/29 03:57:50;;;;;;;24.63;9.60;;;;;;;;;;5001037;28;20424;-68
2022/04/29 04:00:16;;;;;;;24.55;10.38;;;;;;;;;;5005397;28;20080;-68
2022/04/29 04:02:42;;;;;;;21.92;10.02;;;;;;;;;;5001867;28;20049;-68
2022/04/29 04:05:08;;;;;;;26.88;11.02;;;;;;;;;;5005204;28;20787;-68
2022/04/29 04:07:33;;;;;;;26.98;10.45;;;;;;;;;;5002372;28;20042;-68
2022/04/29 04:09:58;;;;;;;31.90;10.30;;;;;;;;;;5000315;28;20076;-68
2022/04/29 04:12:24;;;;;;;27.57;10.30;;;;;;;;;;5003962;28;20087;-68
2022/04/29 04:14:49;;;;;;;26.85;10.20;;;;;;;;;;5004353;28;20306;-68
2022/04/29 04:17:14;;;;;;;25.83;10.73;;;;;;;;;;5000179;28;20443;-68
2022/04/29 04:19:40;;;;;;;29.85;10.93;;;;;;;;;;4987370;28;20079;-68
2022/04/29 04:22:05;;;;;;;25.85;10.55;;;;;;;;;;4999700;28;20295;-68
2022/04/29 04:24:30;;;;;;;21.58;10.60;;;;;;;;;;5005333;28;20067;-68
2022/04/29 04:26:55;;;;;;;28.02;10.68;;;;;;;;;;4997822;28;20635;-68
2022/04/29 04:29:21;;;;;;;34.65;11.05;;;;;;;;;;5001450;28;20026;-68
2022/04/29 04:31:47;;;;;;;32.25;11.00;;;;;;;;;;4999119;28;20518;-68
2022/04/29 04:36:56;;;;;;;32.80;11.02;;;;;;;;;;5000949;28;20044;-68
2022/04/29 04:39:21;;;;;;;29.75;11.27;;;;;;;;;;5002023;28;20038;-68
2022/04/29 04:41:46;;;;;;;28.70;10.02;;;;;;;;;;4998647;28;20028;-68
2022/04/29 04:44:12;;;;;;;33.85;10.82;;;;;;;;;;5001311;28;20027;-68
2022/04/29 04:46:38;;;;;;;27.52;10.70;;;;;;;;;;5002061;28;20014;-68
2022/04/29 04:49:03;;;;;;;31.50;10.55;;;;;;;;;;4986743;28;20052;-68
2022/04/29 04:51:28;;;;;;;33.63;12.33;;;;;;;;;;5002210;28;20468;-68
2022/04/29 04:53:54;;;;;;;28.63;10.65;;;;;;;;;;4999394;28;20267;-68
2022/04/29 04:56:19;;;;;;;26.80;10.43;;;;;;;;;;5000107;28;20037;-68
2022/04/29 04:58:44;;;;;;;29.70;10.38;;;;;;;;;;4995998;28;20283;-68
2022/04/29 05:01:10;;;;;;;29.02;11.40;;;;;;;;;;4996926;28;20627;-68
2022/04/29 05:03:35;;;;;;;27.95;10.75;;;;;;;;;;4995253;28;20547;-68
2022/04/29 05:06:01;;;;;;;27.85;11.93;;;;;;;;;;5004366;28;20029;-68
2022/04/29 05:08:26;;;;;;;30.17;11.40;;;;;;;;;;5001433;28;20271;-72
2022/04/29 05:10:51;;;;;;;35.97;10.97;;;;;;;;;;4996883;28;20022;-68
2022/04/29 05:13:16;;;;;;;29.50;10.53;;;;;;;;;;5001259;28;20311;-74
2022/04/29 05:15:42;;;;;;;26.55;10.68;;;;;;;;;;4998255;28;20586;-68
2022/04/29 05:18:08;;;;;;;25.35;10.13;;;;;;;;;;4997200;28;20029;-68
2022/04/29 05:20:33;;;;;;;32.10;11.63;;;;;;;;;;4985213;28;20033;-68
2022/04/29 05:22:58;;;;;;;33.38;11.48;;;;;;;;;;5004486;28;20037;-68
2022/04/29 05:25:23;;;;;;;33.28;12.43;;;;;;;;;;4995931;28;20030;-68
2022/04/29 05:27:49;;;;;;;41.92;11.75;;;;;;;;;;4992471;28;20133;-69
2022/04/29 05:30:14;;;;;;;32.13;11.07;;;;;;;;;;5000324;28;20271;-70
2022/04/29 05:32:39;;;;;;;34.67;12.10;;;;;;;;;;4992989;28;20041;-70
2022/04/29 05:35:05;;;;;;;30.92;10.93;;;;;;;;;;4979362;28;20383;-70
2022/04/29 05:37:31;;;;;;;34.30;11.30;;;;;;;;;;5006723;28;20065;-70
2022/04/29 05:42:57;;;;;;;32.55;11.07;;;;;;;;;;4953604;28;20126;-70
2022/04/29 05:45:22;;;;;;;36.10;11.30;;;;;;;;;;4976787;28;20688;-70
2022/04/29 05:47:47;;;;;;;29.48;12.18;;;;;;;;;;5002726;28;20414;-71
2022/04/29 05:50:12;;;;;;;27.85;11.30;;;;;;;;;;4996528;28;20057;-70
2022/04/29 05:52:38;;;;;;;27.02;11.07;;;;;;;;;;4999102;28;20382;-71
2022/04/29 05:55:03;;;;;;;29.30;11.90;;;;;;;;;;5000514;28;20035;-71
2022/04/29 05:57:28;;;;;;;27.77;9.38;;;;;;;;;;4992861;28;20133;-71
2022/04/29 05:59:54;;;;;;;31.42;11.90;;;;;;;;;;4981787;28;20101;-70
2022/04/29 06:02:21;;;;;;;29.50;9.63;;;;;;;;;;4990425;28;20318;-70
2022/04/29 06:04:46;;;;;;;32.13;10.90;;;;;;;;;;4990528;28;20021;-70
2022/04/29 06:07:11;;;;;;;39.83;11.98;;;;;;;;;;5000879;28;20038;-71
2022/04/29 06:09:36;;;;;;;27.42;11.00;;;;;;;;;;4998413;28;20457;-70
2022/04/29 06:12:01;;;;;;;37.58;12.32;;;;;;;;;;5000856;28;20022;-70
2022/04/29 06:14:27;;;;;;;34.25;13.93;;;;;;;;;;5002109;28;20443;-70
2022/04/29 06:16:52;;;;;;;29.40;11.50;;;;;;;;;;4999435;28;20025;-71
2022/04/29 06:19:17;;;;;;;37.97;12.77;;;;;;;;;;5002016;28;20234;-72
2022/04/29 06:21:42;;;;;;;29.25;11.63;;;;;;;;;;5001400;28;20279;-71
2022/04/29 06:24:08;;;;;;;35.00;12.50;;;;;;;;;;5007098;28;20299;-71
2022/04/29 06:26:33;;;;;;;32.20;11.95;;;;;;;;;;5002803;28;20272;-71
2022/04/29 06:28:58;;;;;;;32.47;10.37;;;;;;;;;;5000213;28;20057;-71
2022/04/29 06:31:24;;;;;;;35.00;11.20;;;;;;;;;;5002382;28;20306;-71
2022/04/29 06:33:49;;;;;;;33.13;12.13;;;;;;;;;;5000144;28;20376;-71
2022/04/29 06:36:14;;;;;;;32.88;11.73;;;;;;;;;;5009675;28;20443;-72
2022/04/29 06:38:40;;;;;;;29.30;10.88;;;;;;;;;;5004863;28;20353;-71
2022/04/29 06:41:05;;;;;;;37.15;11.40;;;;;;;;;;5007323;28;20017;-71
2022/04/29 06:43:30;;;;;;;34.60;13.20;;;;;;;;;;5005894;28;20052;-71
2022/04/29 06:45:56;;;;;;;41.85;12.10;;;;;;;;;;5001485;28;20708;-71
2022/04/29 06:48:21;;;;;;;34.93;12.97;;;;;;;;;;5001897;28;20038;-70
2022/04/29 06:50:47;;;;;;;33.97;11.33;;;;;;;;;;5004321;28;20358;-70
2022/04/29 06:53:12;;;;;;;31.40;12.90;;;;;;;;;;5004317;28;20749;-70
2022/04/29 06:55:40;;;;;;;32.67;11.68;;;;;;;;;;4996711;28;20034;-71
2022/04/29 06:58:06;;;;;;;38.78;12.13;;;;;;;;;;5006820;28;20045;-70
2022/04/29 07:00:32;;;;;;;43.00;14.10;;;;;;;;;;5005876;28;20583;-70
2022/04/29 07:02:57;;;;;;;32.95;12.10;;;;;;;;;;5001939;28;20049;-71
2022/04/29 07:05:23;;;;;;;33.00;11.85;;;;;;;;;;5002688;28;20100;-70
2022/04/29 07:07:49;;;;;;;35.90;12.02;;;;;;;;;;5008347;28;20033;-70
2022/04/29 07:10:15;;;;;;;35.80;12.82;;;;;;;;;;5007178;28;22527;-70
2022/04/29 07:12:41;;;;;;;38.05;12.60;;;;;;;;;;5007514;28;20022;-71
2022/04/29 07:15:07;;;;;;;36.25;13.00;;;;;;;;;;5008309;28;20030;-72
2022/04/29 07:17:32;;;;;;;38.15;11.95;;;;;;;;;;5006434;28;20045;-71
2022/04/29 07:19:58;;;;;;;28.92;12.07;;;;;;;;;;5006488;28;20116;-70
2022/04/29 07:22:23;;;;;;;41.03;12.10;;;;;;;;;;4989843;28;20068;-71
2022/04/29 07:24:49;;;;;;;39.42;11.95;;;;;;;;;;4986625;28;20025;-71
2022/04/29 07:27:14;;;;;;;34.53;11.82;;;;;;;;;;5002203;28;20065;-70
2022/04/29 07:29:39;;;;;;;32.83;12.55;;;;;;;;;;5007820;28;20034;-70
2022/04/29 07:32:04;;;;;;;34.63;12.32;;;;;;;;;;4985671;28;20387;-71
2022/04/29 07:42:42;;;;;;;40.88;12.25;;;;;;;;;;5008312;28;20078;-70
2022/04/29 07:45:07;;;;;;;36.47;13.40;;;;;;;;;;5019290;28;20025;-71
2022/04/29 07:47:32;;;;;;;25.38;11.35;;;;;;;;;;5026571;28;20720;-71
2022/04/29 07:49:57;;;;;;;30.52;11.00;;;;;;;;;;5008103;28;20524;-71
2022/04/29 07:52:23;;;;;;;31.52;11.98;;;;;;;;;;5006515;28;20022;-70
2022/04/29 07:54:49;;;;;;;35.15;12.55;;;;;;;;;;5002115;28;20027;-69
2022/04/29 07:57:14;;;;;;;30.15;11.82;;;;;;;;;;5008703;28;20116;-70
2022/04/29 07:59:39;;;;;;;33.00;12.80;;;;;;;;;;4993285;28;20149;-70
2022/04/29 08:02:06;;;;;;;31.10;11.10;;;;;;;;;;5003046;28;20030;-70
2022/04/29 08:04:32;;;;;;;32.33;12.88;;;;;;;;;;5005213;28;20440;-70
2022/04/29 08:06:57;;;;;;;29.35;11.18;;;;;;;;;;5005834;28;20034;-71
2022/04/29 08:09:22;;;;;;;33.38;11.60;;;;;;;;;;5003612;28;20136;-70
2022/04/29 08:11:47;;;;;;;26.67;10.93;;;;;;;;;;4997108;28;20030;-70
2022/04/29 08:14:12;;;;;;;25.33;10.07;;;;;;;;;;5005317;28;20433;-71
2022/04/29 08:16:38;;;;;;;26.65;10.40;;;;;;;;;;5010276;28;20380;-71
2022/04/29 08:19:03;;;;;;;34.90;12.67;;;;;;;;;;5003704;28;20030;-70
2022/04/29 08:21:28;;;;;;;32.15;12.85;;;;;;;;;;4998597;28;20464;-71
2022/04/29 08:23:53;;;;;;;50.85;12.85;;;;;;;;;;5003886;28;20034;-70
2022/04/29 08:26:20;;;;;;;28.38;11.65;;;;;;;;;;4992355;28;20026;-70
2022/04/29 08:28:45;;;;;;;29.20;12.10;;;;;;;;;;4995409;28;20404;-69
2022/04/29 08:31:10;;;;;;;29.65;11.45;;;;;;;;;;4999145;28;20025;-70
2022/04/29 08:33:35;;;;;;;30.55;10.55;;;;;;;;;;5005411;28;20109;-71
2022/04/29 08:36:01;;;;;;;30.00;11.45;;;;;;;;;;4987023;28;20126;-70
2022/04/29 08:38:26;;;;;;;34.65;12.48;;;;;;;;;;5006119;28;20788;-71
2022/04/29 08:40:51;;;;;;;22.70;10.90;;;;;;;;;;5008846;28;20025;-71
2022/04/29 08:43:21;;;;;;;33.77;12.57;;;;;;;;;;5005272;28;20041;-71
2022/04/29 08:45:46;;;;;;;31.63;11.45;;;;;;;;;;5001822;28;20667;-71
2022/04/29 08:48:12;;;;;;;38.33;11.82;;;;;;;;;;5009688;28;20041;-70
2022/04/29 08:50:37;;;;;;;34.80;11.60;;;;;;;;;;5003747;28;20381;-70
2022/04/29 08:53:03;;;;;;;30.70;13.13;;;;;;;;;;5001229;28;20030;-70
2022/04/29 09:01:16;;;;;;;34.72;12.57;;;;;;;;;;5003013;28;20052;-71
2022/04/29 09:03:42;;;;;;;28.98;11.77;;;;;;;;;;5010050;28;20475;-71
2022/04/29 09:06:08;;;;;;;35.83;12.48;;;;;;;;;;4993733;28;20479;-72
2022/04/29 09:08:40;;;;;;;32.13;12.98;;;;;;;;;;4988106;28;20018;-71
2022/04/29 09:11:06;;;;;;;24.52;11.90;;;;;;;;;;5002865;28;20026;-71
2022/04/29 09:13:35;;;;;;;31.27;11.07;;;;;;;;;;5004166;28;20029;-70
2022/04/29 09:16:07;;;;;;;32.78;11.90;;;;;;;;;;4998945;28;20536;-70
2022/04/29 09:18:33;;;;;;;32.58;13.30;;;;;;;;;;5002872;28;20046;-70
2022/04/29 09:20:58;;;;;;;30.00;11.48;;;;;;;;;;5001840;28;20048;-70
2022/04/29 09:23:27;;;;;;;23.52;10.60;;;;;;;;;;5000347;28;20515;-70
2022/04/29 09:25:53;;;;;;;29.52;11.05;;;;;;;;;;5005909;28;20069;-70
2022/04/29 09:28:18;;;;;;;25.73;12.23;;;;;;;;;;5006579;28;20053;-70
2022/04/29 09:30:43;;;;;;;29.57;11.77;;;;;;;;;;4993442;28;20484;-71
2022/04/29 09:33:18;;;;;;;37.33;13.60;;;;;;;;;;4999626;28;20273;-71
2022/04/29 09:35:45;;;;;;;25.77;9.95;;;;;;;;;;5004718;28;20752;-71
2022/04/29 09:40:55;;;;;;;24.42;11.45;;;;;;;;;;4999668;28;20483;-69
2022/04/29 09:43:31;;;;;;;26.77;11.07;;;;;;;;;;4996979;28;20029;-70
2022/04/29 09:46:07;;;;;;;26.23;12.35;;;;;;;;;;4996459;28;20436;-70
2022/04/29 09:48:49;;;;;;;24.17;11.20;;;;;;;;;;5003688;28;20026;-70
2022/04/29 09:51:14;;;;;;;29.88;11.38;;;;;;;;;;5000506;28;20091;-70
2022/04/29 09:53:39;;;;;;;30.73;10.65;;;;;;;;;;5000557;28;20049;-71
2022/04/29 09:56:12;;;;;;;33.63;10.95;;;;;;;;;;5004809;28;20060;-71
2022/04/29 09:58:38;;;;;;;28.35;11.88;;;;;;;;;;5000352;28;20030;-71
2022/04/29 10:01:06;;;;;;;23.42;11.10;;;;;;;;;;5003922;28;20530;-71
2022/04/29 10:03:32;;;;;;;24.52;9.63;;;;;;;;;;5002087;28;20381;-71
2022/04/29 10:06:00;;;;;;;26.02;10.55;;;;;;;;;;5003366;28;20512;-71
2022/04/29 10:08:26;;;;;;;32.38;11.18;;;;;;;;;;5006389;28;20029;-72
2022/04/29 10:10:52;;;;;;;22.02;9.40;;;;;;;;;;5002104;28;20026;-71
2022/04/29 10:13:18;;;;;;;24.15;10.75;;;;;;;;;;4984886;28;20113;-70
2022/04/29 10:15:44;;;;;;;21.60;9.13;;;;;;;;;;5004422;28;20145;-71
2022/04/29 10:23:38;;;;;;;26.60;9.93;;;;;;;;;;5006868;28;20037;-70
2022/04/29 10:26:03;;;;;;;24.13;11.00;;;;;;;;;;5006864;28;20376;-72
2022/04/29 10:28:29;;;;;;;38.20;12.02;;;;;;;;;;5007502;28;20021;-72
2022/04/29 10:31:06;;;;;;;24.55;10.15;;;;;;;;;;5001363;28;20033;-71
2022/04/29 10:33:31;;;;;;;22.27;9.20;;;;;;;;;;5003604;28;20075;-72
2022/04/29 10:36:04;;;;;;;22.30;9.27;;;;;;;;;;5003437;28;20754;-70
2022/04/29 10:38:31;;;;;;;20.80;9.47;;;;;;;;;;4998768;28;20037;-72
2022/04/29 10:41:08;;;;;;;24.67;9.05;;;;;;;;;;5006121;28;20788;-72
2022/04/29 10:43:40;;;;;;;24.40;10.15;;;;;;;;;;5011837;28;20034;-73
2022/04/29 10:46:05;;;;;;;23.00;9.45;;;;;;;;;;5003731;28;20100;-74
2022/04/29 10:48:30;;;;;;;21.08;7.78;;;;;;;;;;5018305;28;20862;-71
2022/04/29 10:50:56;;;;;;;19.08;8.68;;;;;;;;;;5013391;28;20029;-71
2022/04/29 10:53:22;;;;;;;26.20;8.65;;;;;;;;;;5015114;28;20709;-71
2022/04/29 10:55:47;;;;;;;18.25;8.25;;;;;;;;;;5007809;28;20540;-71
2022/04/29 10:58:22;;;;;;;18.13;8.83;;;;;;;;;;5010702;28;20060;-71
2022/04/29 11:00:54;;;;;;;16.35;7.07;;;;;;;;;;5014426;28;20646;-71
2022/04/29 11:03:38;;;;;;;17.85;8.07;;;;;;;;;;5019761;28;20072;-71
2022/04/29 11:06:07;;;;;;;26.08;8.82;;;;;;;;;;5017535;28;20025;-71
2022/04/29 11:08:32;;;;;;;14.00;7.25;;;;;;;;;;5018949;28;20092;-71
2022/04/29 11:10:58;;;;;;;18.42;7.07;;;;;;;;;;5016021;28;20134;-71
2022/04/29 11:13:26;;;;;;;18.05;7.40;;;;;;;;;;5017173;28;20075;-71
2022/04/29 11:15:51;;;;;;;20.77;7.85;;;;;;;;;;5011169;28;20069;-72
2022/04/29 11:18:18;;;;;;;17.23;7.60;;;;;;;;;;5007135;28;20022;-72
2022/04/29 11:20:45;;;;;;;15.65;7.50;;;;;;;;;;5010276;28;20193;-71
2022/04/29 11:25:56;;;;;;;20.55;8.40;;;;;;;;;;5005494;28;20028;-71
2022/04/29 11:28:22;;;;;;;25.55;8.48;;;;;;;;;;5004549;28;20061;-72
2022/04/29 11:30:47;;;;;;;17.77;8.82;;;;;;;;;;5016779;28;20041;-71
2022/04/29 11:33:13;;;;;;;20.25;8.57;;;;;;;;;;5014173;28;20030;-72
2022/04/29 11:35:39;;;;;;;17.92;8.40;;;;;;;;;;5011495;28;20096;-72
2022/04/29 11:38:05;;;;;;;24.05;8.88;;;;;;;;;;5008187;28;20415;-72
2022/04/29 11:40:30;;;;;;;14.38;8.32;;;;;;;;;;5011167;28;20088;-72
2022/04/29 11:42:55;;;;;;;22.97;8.77;;;;;;;;;;5006607;28;20350;-72
2022/04/29 11:45:22;;;;;;;27.40;10.40;;;;;;;;;;5010968;28;20776;-71
2022/04/29 11:47:47;;;;;;;27.33;10.50;;;;;;;;;;5011435;28;20025;-72
2022/04/29 11:50:12;;;;;;;27.30;11.05;;;;;;;;;;5011160;28;20478;-74
2022/04/29 11:52:39;;;;;;;21.70;9.47;;;;;;;;;;5008602;28;20600;-72
2022/04/29 11:55:08;;;;;;;22.50;9.15;;;;;;;;;;5005465;28;20267;-73
2022/04/29 11:57:41;;;;;;;24.60;10.38;;;;;;;;;;5009237;28;20037;-73
2022/04/29 12:00:07;;;;;;;22.45;10.90;;;;;;;;;;5016499;28;20029;-73
2022/04/29 12:02:32;;;;;;;26.08;10.90;;;;;;;;;;5003575;28;20032;-72
2022/04/29 12:05:01;;;;;;;27.30;11.77;;;;;;;;;;5010158;28;20030;-71
2022/04/29 12:07:27;;;;;;;23.75;11.43;;;;;;;;;;5003502;28;20095;-72
2022/04/29 12:09:53;;;;;;;24.63;10.98;;;;;;;;;;5001794;28;20035;-72
2022/04/29 12:12:25;;;;;;;24.38;12.23;;;;;;;;;;5008129;28;20368;-73
2022/04/29 12:14:51;;;;;;;24.38;11.32;;;;;;;;;;5009597;28;20097;-72
2022/04/29 12:17:16;;;;;;;30.23;10.95;;;;;;;;;;5003415;28;20060;-72
2022/04/29 12:19:41;;;;;;;20.10;10.20;;;;;;;;;;5009492;28;20395;-70
2022/04/29 12:22:07;;;;;;;22.88;10.02;;;;;;;;;;5004950;28;20025;-70
2022/04/29 12:24:45;;;;;;;21.57;10.00;;;;;;;;;;5005580;28;20052;-71
2022/04/29 12:27:10;;;;;;;18.88;10.73;;;;;;;;;;5008422;28;20247;-72
2022/04/29 12:29:39;;;;;;;22.65;10.65;;;;;;;;;;5007064;28;20340;-72
2022/04/29 12:35:10;;;;;;;26.33;10.75;;;;;;;;;;5008525;28;20060;-72
2022/04/29 12:37:36;;;;;;;20.23;9.85;;;;;;;;;;5009672;28;20057;-72
2022/04/29 12:40:05;;;;;;;26.45;11.13;;;;;;;;;;5007299;28;20061;-72
2022/04/29 12:42:30;;;;;;;29.35;10.10;;;;;;;;;;5006896;28;20080;-70
2022/04/29 12:45:14;;;;;;;21.85;9.82;;;;;;;;;;5009935;28;20460;-70
2022/04/29 12:47:42;;;;;;;22.30;11.70;;;;;;;;;;5003954;28;20033;-71
2022/04/29 12:50:20;;;;;;;20.90;9.45;;;;;;;;;;5010395;28;20109;-70
2022/04/29 12:52:54;;;;;;;20.10;9.90;;;;;;;;;;5001058;28;20504;-70
2022/04/29 12:55:20;;;;;;;19.00;10.43;;;;;;;;;;5006483;28;20030;-70
2022/04/29 12:57:45;;;;;;;23.08;9.52;;;;;;;;;;5002660;28;20030;-71
2022/04/29 13:00:11;;;;;;;20.92;9.00;;;;;;;;;;5007702;28;20048;-71
2022/04/29 13:02:36;;;;;;;16.65;8.68;;;;;;;;;;5006863;28;20033;-70
2022/04/29 13:05:01;;;;;;;21.35;9.23;;;;;;;;;;5004838;28;20036;-71
2022/04/29 13:07:26;;;;;;;19.73;9.73;;;;;;;;;;5009792;28;20028;-70
2022/04/29 13:09:51;;;;;;;21.10;9.68;;;;;;;;;;5009949;28;20030;-71
2022/04/29 13:12:17;;;;;;;12.57;8.57;;;;;;;;;;5005953;28;20022;-71
2022/04/29 13:14:42;;;;;;;17.42;8.57;;;;;;;;;;5007233;28;20025;-71
2022/04/29 13:17:07;;;;;;;24.53;9.03;;;;;;;;;;5002171;28;20040;-70
2022/04/29 13:19:33;;;;;;;17.42;8.60;;;;;;;;;;5008148;28;20422;-71
2022/04/29 13:21:58;;;;;;;18.53;10.07;;;;;;;;;;5007906;28;20112;-71
2022/04/29 13:24:23;;;;;;;19.92;9.55;;;;;;;;;;5010451;28;20488;-71
2022/04/29 13:26:48;;;;;;;20.47;9.17;;;;;;;;;;5012615;28;20168;-71
2022/04/29 13:29:15;;;;;;;22.27;10.07;;;;;;;;;;5005611;28;20283;-70
2022/04/29 13:31:40;;;;;;;22.60;9.50;;;;;;;;;;5009929;28;20041;-71
2022/04/29 13:34:06;;;;;;;15.80;8.77;;;;;;;;;;5005039;28;20038;-70
2022/04/29 13:36:31;;;;;;;20.53;10.20;;;;;;;;;;5008927;28;20267;-71
2022/04/29 13:38:56;;;;;;;19.60;10.13;;;;;;;;;;5011034;28;20053;-71
2022/04/29 13:41:21;;;;;;;22.30;8.73;;;;;;;;;;5006310;28;20577;-70
2022/04/29 13:43:48;;;;;;;17.40;9.05;;;;;;;;;;5008999;28;20030;-71
2022/04/29 13:46:13;;;;;;;17.42;9.75;;;;;;;;;;5013228;28;20026;-70
2022/04/29 13:48:38;;;;;;;13.03;8.40;;;;;;;;;;5009800;28;20029;-70
2022/04/29 13:51:03;;;;;;;16.50;9.37;;;;;;;;;;5009014;28;20277;-70
2022/04/29 13:53:28;;;;;;;21.70;9.82;;;;;;;;;;5012637;28;20026;-70
2022/04/29 13:55:54;;;;;;;18.80;9.27;;;;;;;;;;5011665;28;20112;-70
2022/04/29 13:58:22;;;;;;;22.38;9.23;;;;;;;;;;5011616;28;20029;-70
2022/04/29 14:00:48;;;;;;;18.85;9.10;;;;;;;;;;5009878;28;20140;-70
2022/04/29 14:03:17;;;;;;;21.60;9.85;;;;;;;;;;5011874;28;20018;-70
2022/04/29 14:05:43;;;;;;;23.80;10.15;;;;;;;;;;5010628;28;20044;-71
2022/04/29 14:08:08;;;;;;;21.65;9.32;;;;;;;;;;5009425;28;20717;-71
2022/04/29 14:10:34;;;;;;;19.15;8.95;;;;;;;;;;5006442;28;20112;-70
2022/04/29 14:12:59;;;;;;;19.90;9.48;;;;;;;;;;5006399;28;20021;-69
2022/04/29 14:15:24;;;;;;;29.38;9.85;;;;;;;;;;5010525;28;20018;-71
2022/04/29 14:17:50;;;;;;;18.35;9.63;;;;;;;;;;5007415;28;20476;-72
2022/04/29 14:20:15;;;;;;;19.30;9.40;;;;;;;;;;5013541;28;20030;-72
2022/04/29 14:22:40;;;;;;;18.17;9.82;;;;;;;;;;5016856;28;20273;-71
2022/04/29 14:25:08;;;;;;;17.63;9.10;;;;;;;;;;5017520;28;20032;-71
2022/04/29 14:27:33;;;;;;;14.13;8.98;;;;;;;;;;5007633;28;20029;-70
2022/04/29 14:29:58;;;;;;;23.65;9.10;;;;;;;;;;5011575;28;20021;-70
2022/04/29 14:32:23;;;;;;;18.30;10.00;;;;;;;;;;5016601;28;20026;-72
2022/04/29 14:34:49;;;;;;;13.63;9.40;;;;;;;;;;5016032;28;20025;-72
2022/04/29 14:37:14;;;;;;;17.30;8.90;;;;;;;;;;5015015;28;20068;-73
2022/04/29 14:39:40;;;;;;;19.63;10.50;;;;;;;;;;5001941;28;20464;-74
2022/04/29 14:42:06;;;;;;;17.95;9.48;;;;;;;;;;5008743;28;20030;-72
2022/04/29 14:44:31;;;;;;;14.13;8.50;;;;;;;;;;5005728;28;20069;-74
2022/04/29 14:46:58;;;;;;;20.50;9.45;;;;;;;;;;5013740;28;20441;-72
2022/04/29 14:49:23;;;;;;;15.43;9.50;;;;;;;;;;5004875;28;20038;-72
2022/04/29 14:51:49;;;;;;;17.77;9.55;;;;;;;;;;5009277;28;20053;-72